Terminal Aerodrome Forecast
Issued by NWS

Home | Current Version | Previous Version | Text Only | Print | Product List | Glossary On
Versions: 1 2 3 4 5 6 7 8 9 10 11 12 13 14 15 16 17 18 19 20 21 22 23 24 25 26 27 28
520
FTUS41 KGYX 080102 AAA
TAFHIE
TAF AMD
KHIE 080102Z 0801/0824 00000KT 2SM BR OVC012
     FM080800 VRB03KT P6SM BKN025
     FM081500 26005KT P6SM -SHSN OVC025=

USA.gov is the U.S. government's official web portal to all federal, state and local government web resources and services.